Weather at Ronald Reagan Washington National Airport

Public forecast

Using degrees Fahrenheit for public forecast. Weather courtesy of forecast.io.

Current aviation weather report (METAR) for Ronald Reagan Washington National Airport

Retrieved 2021/10/19 19:52 UTC (27 minutes ago):

KDCA 191952Z 27008KT 10SM CLR 23/06 A3007 RMK AO2 SLP183 T02330056

Aviation forecast (TAF) for Ronald Reagan Washington National Airport

Retrieved 2021/10/19 18:39 UTC (2 hours ago):

TAF KDCA 191737Z 1918/2024 29009G16KT P6SM SKC FM200300 25004KT P6SM SCT250 FM201400 28008KT P6SM SKC